URSSURKK

Guest
Details From URSS - Sochi
To URKK - Pashkovskiy
Flight Number -
Tags Real
Created
Modified
Stats Distance 110 nm / 204 km
Max Altitude 0 ft / 0 m
Waypoints 4
Social Downloads 15
Likes 0
Share VATSIM

Download

Looking for another format? Having issues loading an existing format? Contact us
Advertisement - Login to hide

Notes

None

Route

URSS LA LEKPI URKK

ID Type Via Altitude Latitude Longitude Leg Dist Tot Dist Heading (true) Name
O URSS APT - 0 ft / 0 m 43.43576˚ 39.94578˚ - 0 nm - Sochi
LA NDB - 0 ft / 0 m 43.91667˚ 39.33333˚ 39 nm 39 nm 318° / 317° -
LEKPI FIX - 0 ft / 0 m 44.53333˚ 39.48333˚ 37 nm 76 nm 10° / 10° -
O URKK APT - 0 ft / 0 m 45.02906˚ 39.14142˚ 33 nm 110 nm 334° / 334° -

Altitude Profile

Advertisement - Login to hide

URSS

Details ICAO URSS (AER)
Name Sochi
Region Russia
Timezone Europe/Moscow (UTC+3.0)
Stats Elevation 89 ft / 27 m (AMSL)
Location 43.444749° 39.947302°
Runways 2
Magnetic Variation 7.001° E

METAR

URSS 201230Z 23002MPS 200V310 9999 FEW050TCU 26/16 Q1012 R02/090070 R06/090070 NOSIG RMK R06/28003MPS QFE758

Decode

TAF

TAF URSS 201057Z 2012/2112 23005G10MPS 9999 SCT030CB BKN100 TEMPO 2012/2016 27005G10MPS -TSRA BECMG 2016/2017 06006MPS BKN030CB BKN100 BECMG 2106/2107 16006G11MPS TEMPO 2106/2112 -TSRA

Decode

Departure Runways

ID Width Length Bearing (true) Bearing (mag) Surface Threshold Offset Overrun Length
02 161 ft / 49 m 7,267 ft / 2,215 m 28.98° 21.98° Concrete 0 ft / 0 m 0 ft / 0 m
06 164 ft / 50 m 9,531 ft / 2,905 m 64.90° 57.90° Concrete 262 ft / 80 m 0 ft / 0 m
20 161 ft / 49 m 7,267 ft / 2,215 m 208.99° 201.99° Concrete 0 ft / 0 m 0 ft / 0 m
24 164 ft / 50 m 9,531 ft / 2,905 m 244.92° 237.92° Concrete 0 ft / 0 m 0 ft / 0 m

URKK

Details ICAO URKK (KRR)
Name PASHKOVSKIY
Region Russia
Timezone Europe/Moscow (UTC+3.0)
Stats Elevation 118 ft / 36 m (AMSL)
Location 45.034644° 39.170454°
Runways 2
Magnetic Variation 7.396° E

METAR

URKK 201230Z 21005MPS 180V240 9999 SCT///CB 29/13 Q1011 R23L/CLRD70 TEMPO 2000 TSRA SCT007 BKN020CB RMK QFE755

Decode

TAF

TAF URKK 201055Z 2012/2112 23003G08MPS 9999 SCT030CB TEMPO 2012/2112 VRB06G14MPS 3100 -TSRA BKN011 BKN020CB

Decode

Destination Runways

ID Width Length Bearing (true) Bearing (mag) Surface Threshold Offset Overrun Length
05L 160 ft / 49 m 7,177 ft / 2,187 m 52.37° 44.97° Asphalt 0 ft / 0 m 160 ft / 49 m
05R 145 ft / 44 m 9,822 ft / 2,994 m 52.45° 45.05° Concrete 0 ft / 0 m 160 ft / 49 m
23L 145 ft / 44 m 9,822 ft / 2,994 m 232.47° 225.07° Concrete 0 ft / 0 m 160 ft / 49 m
23R 160 ft / 49 m 7,177 ft / 2,187 m 232.38° 224.98° Asphalt 0 ft / 0 m 160 ft / 49 m

Popular Alternatives